Time;durP1;ratioP1;P1;durP2;ratioP2;P2;SDS_P1;SDS_P2;PMS_P1;PMS_P2;Temp;Humidity;BMP_temperature;BMP_pressure;BME280_temperature;BME280_humidity;BME280_pressure;Samples;Min_cycle;Max_cycle;Signal;HPM_P1;HPM_P2
2023/07/27 00:00:40;;;;;;;2.77;2.40;;;13.70;99.90;;;;;;469389;253;28381;-80
2023/07/27 00:02:41;;;;;;;3.73;3.13;;;13.70;99.90;;;;;;469364;252;28416;-79
2023/07/27 00:04:43;;;;;;;4.63;3.10;;;13.70;99.90;;;;;;469352;252;28586;-80
2023/07/27 00:06:46;;;;;;;3.90;2.70;;;13.70;99.90;;;;;;469411;253;28548;-80
2023/07/27 00:08:45;;;;;;;2.73;2.53;;;13.70;99.90;;;;;;469323;253;29143;-82
2023/07/27 00:10:46;;;;;;;2.73;2.53;;;13.80;99.90;;;;;;469506;253;28589;-81
2023/07/27 00:12:48;;;;;;;3.00;2.73;;;13.80;99.90;;;;;;469499;252;28506;-78
2023/07/27 00:14:49;;;;;;;5.23;2.97;;;13.80;99.90;;;;;;469462;252;28466;-79
2023/07/27 00:16:50;;;;;;;2.70;2.50;;;13.80;99.90;;;;;;469394;253;28439;-79
2023/07/27 00:18:51;;;;;;;3.33;3.03;;;13.80;99.90;;;;;;469421;252;29443;-80
2023/07/27 00:20:53;;;;;;;2.93;2.73;;;13.80;99.90;;;;;;469474;252;29737;-79
2023/07/27 00:22:54;;;;;;;5.13;3.30;;;13.80;99.90;;;;;;469481;252;29166;-77
2023/07/27 00:24:55;;;;;;;3.60;3.07;;;13.80;99.90;;;;;;469477;252;28982;-79
2023/07/27 00:26:56;;;;;;;3.50;2.83;;;13.80;99.90;;;;;;469395;252;28508;-80
2023/07/27 00:28:58;;;;;;;3.50;3.00;;;13.80;99.90;;;;;;469426;252;28524;-78
2023/07/27 00:30:59;;;;;;;3.30;3.00;;;13.90;99.90;;;;;;469411;252;28489;-80
2023/07/27 00:33:00;;;;;;;3.97;2.90;;;13.80;99.90;;;;;;469518;252;28432;-80
2023/07/27 00:35:01;;;;;;;4.87;3.03;;;13.90;99.90;;;;;;469501;252;28510;-84
2023/07/27 00:37:03;;;;;;;3.90;2.80;;;13.90;99.90;;;;;;469396;252;28327;-79
2023/07/27 00:39:04;;;;;;;3.00;2.70;;;13.90;99.90;;;;;;469490;252;29326;-79
2023/07/27 00:41:05;;;;;;;3.40;2.70;;;13.90;99.90;;;;;;469464;252;28497;-80
2023/07/27 00:43:06;;;;;;;7.13;3.43;;;14.00;99.90;;;;;;469459;252;28534;-79
2023/07/27 00:45:08;;;;;;;4.87;3.37;;;14.00;99.90;;;;;;469346;252;29792;-80
2023/07/27 00:47:09;;;;;;;2.50;2.30;;;14.10;99.90;;;;;;469441;252;29332;-80
2023/07/27 00:49:10;;;;;;;2.60;2.40;;;14.00;99.90;;;;;;469522;252;29038;-76
2023/07/27 00:51:11;;;;;;;3.33;3.03;;;14.10;99.90;;;;;;469374;252;28893;-80
2023/07/27 00:53:13;;;;;;;4.70;2.90;;;14.10;99.90;;;;;;469378;252;28494;-78
2023/07/27 00:55:14;;;;;;;3.20;2.87;;;14.10;99.90;;;;;;469329;252;28606;-81
2023/07/27 00:57:17;;;;;;;3.33;2.93;;;14.10;99.90;;;;;;469364;252;28592;-80
2023/07/27 00:59:16;;;;;;;3.73;2.80;;;14.20;99.90;;;;;;469397;252;28525;-77
2023/07/27 01:01:18;;;;;;;5.00;2.93;;;14.20;99.90;;;;;;469380;253;28749;-80
2023/07/27 01:03:19;;;;;;;3.00;2.70;;;14.20;99.90;;;;;;469364;252;28916;-80
2023/07/27 01:05:20;;;;;;;3.93;3.10;;;14.20;99.90;;;;;;469419;252;28544;-79
2023/07/27 01:07:21;;;;;;;3.73;2.77;;;14.20;99.90;;;;;;469385;252;28405;-79
2023/07/27 01:09:23;;;;;;;3.87;2.53;;;14.20;99.90;;;;;;469379;252;28822;-77
2023/07/27 01:11:24;;;;;;;3.30;2.63;;;14.20;99.90;;;;;;469452;252;29245;-80
2023/07/27 01:13:25;;;;;;;3.30;2.83;;;14.20;99.90;;;;;;469458;252;29418;-79
2023/07/27 01:15:26;;;;;;;2.90;2.70;;;14.20;99.90;;;;;;469386;252;28991;-82
2023/07/27 01:17:28;;;;;;;3.47;3.17;;;14.30;99.90;;;;;;469398;252;29268;-81
2023/07/27 01:19:29;;;;;;;3.70;2.60;;;14.20;99.90;;;;;;469355;252;28923;-79
2023/07/27 01:21:30;;;;;;;5.07;3.50;;;14.30;99.90;;;;;;469324;252;28806;-81
2023/07/27 01:23:31;;;;;;;3.10;2.90;;;14.30;99.90;;;;;;469324;252;28541;-78
2023/07/27 01:25:33;;;;;;;2.63;2.40;;;14.30;99.90;;;;;;469343;252;28863;-80
2023/07/27 01:27:34;;;;;;;3.60;2.67;;;14.30;99.90;;;;;;469442;253;28813;-80
2023/07/27 01:29:35;;;;;;;4.27;3.10;;;14.30;99.90;;;;;;469400;252;28929;-79
2023/07/27 01:31:41;;;;;;;3.13;2.83;;;14.30;99.90;;;;;;469380;252;28497;-80
2023/07/27 01:33:38;;;;;;;3.60;3.10;;;14.30;99.90;;;;;;469170;253;29297;-79
2023/07/27 01:35:39;;;;;;;3.37;3.00;;;14.30;99.90;;;;;;469397;252;29494;-79
2023/07/27 01:37:40;;;;;;;4.33;2.80;;;14.30;99.90;;;;;;469432;253;29277;-79
2023/07/27 01:39:41;;;;;;;4.57;2.60;;;14.30;99.90;;;;;;469480;252;29336;-78
2023/07/27 01:41:43;;;;;;;2.80;2.60;;;14.30;99.90;;;;;;469487;252;28384;-79
2023/07/27 01:43:44;;;;;;;3.90;3.20;;;14.20;99.90;;;;;;469444;253;28920;-79
2023/07/27 01:45:45;;;;;;;2.93;2.73;;;14.30;99.90;;;;;;469396;252;28562;-79
2023/07/27 01:47:46;;;;;;;4.27;3.40;;;14.30;99.90;;;;;;469401;252;28821;-78
2023/07/27 01:49:48;;;;;;;3.27;3.00;;;14.30;99.90;;;;;;469469;252;29037;-77
2023/07/27 01:51:49;;;;;;;5.10;2.90;;;14.30;99.90;;;;;;469394;253;28800;-79
2023/07/27 01:53:50;;;;;;;4.20;3.33;;;14.30;99.90;;;;;;469381;252;28846;-79
2023/07/27 01:55:51;;;;;;;3.40;3.10;;;14.30;99.90;;;;;;469389;253;28976;-79
2023/07/27 01:57:53;;;;;;;2.73;2.50;;;14.30;99.90;;;;;;469400;252;28494;-80
2023/07/27 01:59:54;;;;;;;3.03;2.77;;;14.30;99.90;;;;;;469398;252;29189;-79
2023/07/27 02:01:55;;;;;;;3.87;2.80;;;14.30;99.90;;;;;;469470;253;29382;-79
2023/07/27 02:03:56;;;;;;;2.83;2.57;;;14.40;99.90;;;;;;469477;252;29422;-78
2023/07/27 02:05:58;;;;;;;3.20;2.60;;;14.30;99.90;;;;;;469424;252;28935;-81
2023/07/27 02:07:59;;;;;;;4.20;3.13;;;14.40;99.90;;;;;;469417;252;28456;-80
2023/07/27 02:10:00;;;;;;;4.20;2.97;;;14.40;99.90;;;;;;469415;253;28567;-79
2023/07/27 02:12:01;;;;;;;3.53;2.70;;;14.40;99.90;;;;;;469483;252;28808;-79
2023/07/27 02:14:03;;;;;;;3.40;2.87;;;14.40;99.90;;;;;;469420;252;28847;-77
2023/07/27 02:16:04;;;;;;;2.70;2.50;;;14.50;99.90;;;;;;469480;252;28869;-77
2023/07/27 02:18:05;;;;;;;3.90;2.63;;;14.50;99.90;;;;;;469519;252;28896;-78
2023/07/27 02:20:06;;;;;;;3.40;2.70;;;14.50;99.90;;;;;;469461;252;28564;-78
2023/07/27 02:22:08;;;;;;;2.47;2.37;;;14.50;99.90;;;;;;469431;252;28853;-80
2023/07/27 02:24:09;;;;;;;2.60;2.40;;;14.40;99.90;;;;;;469466;252;28546;-78
2023/07/27 02:26:10;;;;;;;3.03;2.83;;;14.40;99.90;;;;;;469488;252;28531;-78
2023/07/27 02:28:11;;;;;;;2.90;2.70;;;14.50;99.90;;;;;;469421;253;28833;-81
2023/07/27 02:30:13;;;;;;;3.30;2.97;;;14.50;99.90;;;;;;469379;252;28612;-78
2023/07/27 02:32:14;;;;;;;3.17;2.90;;;14.50;99.90;;;;;;469439;252;28817;-80
2023/07/27 02:34:15;;;;;;;4.47;3.00;;;14.50;99.90;;;;;;469435;253;29353;-80
2023/07/27 02:36:16;;;;;;;3.30;3.10;;;14.50;99.90;;;;;;469448;252;29347;-78
2023/07/27 02:38:18;;;;;;;4.80;2.73;;;14.50;99.90;;;;;;469367;253;29427;-81
2023/07/27 02:40:19;;;;;;;3.47;3.17;;;14.50;99.90;;;;;;469366;252;29484;-81
2023/07/27 02:42:20;;;;;;;3.43;2.87;;;14.60;99.90;;;;;;469385;252;28846;-80
2023/07/27 02:44:21;;;;;;;7.33;2.83;;;14.60;99.90;;;;;;469404;253;28892;-80
2023/07/27 02:46:23;;;;;;;3.50;2.83;;;14.50;99.90;;;;;;469399;252;28928;-80
2023/07/27 02:48:24;;;;;;;3.80;3.43;;;14.50;99.90;;;;;;469426;252;28822;-81
2023/07/27 02:50:25;;;;;;;6.60;3.10;;;14.60;99.90;;;;;;469299;252;28863;-81
2023/07/27 02:52:26;;;;;;;3.53;3.20;;;14.60;99.90;;;;;;469351;252;28524;-80
2023/07/27 02:54:28;;;;;;;2.80;2.60;;;14.60;99.90;;;;;;469406;253;28842;-81
2023/07/27 02:56:29;;;;;;;4.73;3.07;;;14.60;99.90;;;;;;469397;252;28542;-79
2023/07/27 02:58:30;;;;;;;3.43;3.00;;;14.60;99.90;;;;;;469456;252;28591;-82
2023/07/27 03:00:32;;;;;;;3.10;2.80;;;14.60;99.90;;;;;;469362;252;29293;-81
2023/07/27 03:02:33;;;;;;;3.87;2.87;;;14.60;99.90;;;;;;469396;252;29392;-78
2023/07/27 03:04:34;;;;;;;3.00;2.63;;;14.60;99.90;;;;;;469501;252;29240;-80
2023/07/27 03:06:35;;;;;;;3.07;2.80;;;14.60;99.90;;;;;;469484;252;28928;-77
2023/07/27 03:08:37;;;;;;;5.30;2.87;;;14.60;99.90;;;;;;469395;252;28785;-81
2023/07/27 03:10:39;;;;;;;3.40;3.10;;;14.60;99.90;;;;;;469381;252;28896;-77
2023/07/27 03:12:39;;;;;;;3.50;2.93;;;14.70;99.90;;;;;;469465;252;28852;-79
2023/07/27 03:14:40;;;;;;;4.80;3.43;;;14.70;99.90;;;;;;469458;252;28814;-80
2023/07/27 03:16:41;;;;;;;2.70;2.50;;;14.70;99.90;;;;;;469442;252;28518;-80
2023/07/27 03:18:43;;;;;;;3.00;2.80;;;14.70;99.90;;;;;;469395;252;28538;-81
2023/07/27 03:20:44;;;;;;;4.17;3.17;;;14.70;99.90;;;;;;469460;252;28921;-78
2023/07/27 03:22:45;;;;;;;3.40;3.00;;;14.70;99.90;;;;;;469390;253;28850;-77
2023/07/27 03:24:47;;;;;;;3.97;2.80;;;14.70;99.90;;;;;;469353;253;28915;-80
2023/07/27 03:26:48;;;;;;;3.20;2.90;;;14.80;99.90;;;;;;469368;252;28860;-81
2023/07/27 03:28:49;;;;;;;3.30;2.50;;;14.80;99.90;;;;;;469373;252;28873;-79
2023/07/27 03:30:50;;;;;;;3.03;2.83;;;14.80;99.90;;;;;;469391;252;28851;-80
2023/07/27 03:32:52;;;;;;;4.63;2.93;;;14.80;99.90;;;;;;469392;252;28864;-80
2023/07/27 03:34:53;;;;;;;2.60;2.40;;;14.80;99.90;;;;;;469439;252;28848;-79
2023/07/27 03:36:54;;;;;;;2.83;2.63;;;14.80;99.90;;;;;;469442;252;28948;-80
2023/07/27 03:38:55;;;;;;;3.27;2.90;;;14.80;99.90;;;;;;469376;252;28884;-80
2023/07/27 03:40:57;;;;;;;5.00;2.93;;;14.90;99.90;;;;;;469380;252;29382;-79
2023/07/27 03:42:58;;;;;;;2.90;2.70;;;14.90;99.90;;;;;;469392;252;29460;-80
2023/07/27 03:44:59;;;;;;;8.20;3.60;;;14.80;99.90;;;;;;469388;249;29289;-81
2023/07/27 03:47:00;;;;;;;3.20;2.90;;;14.90;99.90;;;;;;469382;252;29505;-80
2023/07/27 03:49:02;;;;;;;3.00;2.80;;;14.90;99.90;;;;;;469398;252;28901;-81
2023/07/27 03:51:03;;;;;;;4.13;3.40;;;14.90;99.90;;;;;;469417;252;28848;-80
2023/07/27 03:53:04;;;;;;;2.97;2.60;;;14.80;99.90;;;;;;469477;252;28540;-78
2023/07/27 03:55:05;;;;;;;4.17;2.97;;;14.80;99.90;;;;;;469431;252;28904;-80
2023/07/27 03:57:07;;;;;;;3.73;2.73;;;14.90;99.90;;;;;;469423;252;28860;-81
2023/07/27 03:59:08;;;;;;;3.00;2.80;;;14.80;99.90;;;;;;469415;252;28869;-80
2023/07/27 04:01:09;;;;;;;6.80;3.27;;;14.80;99.90;;;;;;469468;253;28835;-80
2023/07/27 04:03:10;;;;;;;3.20;2.90;;;14.80;99.90;;;;;;469459;252;28537;-78
2023/07/27 04:05:12;;;;;;;3.43;2.80;;;14.80;99.90;;;;;;469424;252;28878;-80
2023/07/27 04:07:13;;;;;;;3.87;3.30;;;14.90;99.90;;;;;;469435;253;29379;-79
2023/07/27 04:09:14;;;;;;;3.40;2.87;;;14.80;99.90;;;;;;469464;252;29488;-80
2023/07/27 04:11:15;;;;;;;3.87;3.30;;;14.80;99.90;;;;;;469441;252;29290;-80
2023/07/27 04:13:17;;;;;;;3.43;3.13;;;14.90;99.90;;;;;;469464;252;28842;-79
2023/07/27 04:15:18;;;;;;;3.30;3.00;;;14.80;99.90;;;;;;469416;252;28840;-80
2023/07/27 04:17:19;;;;;;;4.03;3.43;;;14.80;99.90;;;;;;469449;252;28896;-80
2023/07/27 04:19:20;;;;;;;3.67;3.30;;;14.80;99.90;;;;;;469387;252;28814;-81
2023/07/27 04:21:22;;;;;;;4.50;3.13;;;14.80;99.90;;;;;;469388;252;28825;-81
2023/07/27 04:23:23;;;;;;;3.10;2.80;;;14.80;99.90;;;;;;469377;252;28424;-80
2023/07/27 04:25:24;;;;;;;3.60;3.30;;;14.90;99.90;;;;;;469426;252;28841;-80
2023/07/27 04:27:25;;;;;;;2.90;2.70;;;14.90;99.90;;;;;;469415;252;28877;-79
2023/07/27 04:29:27;;;;;;;7.80;3.67;;;14.90;99.90;;;;;;469448;252;28909;-79
2023/07/27 04:31:28;;;;;;;4.30;3.00;;;14.80;99.90;;;;;;469378;252;29316;-80
2023/07/27 04:33:29;;;;;;;3.63;3.13;;;14.80;99.90;;;;;;469380;252;29341;-79
2023/07/27 04:35:30;;;;;;;3.30;3.00;;;14.90;99.90;;;;;;469346;252;29347;-79
2023/07/27 04:37:32;;;;;;;4.23;3.00;;;14.80;99.90;;;;;;469341;249;28865;-79
2023/07/27 04:39:33;;;;;;;3.37;3.10;;;14.80;99.90;;;;;;469482;252;28941;-77
2023/07/27 04:41:34;;;;;;;3.73;3.07;;;14.80;99.90;;;;;;469367;252;28893;-79
2023/07/27 04:43:35;;;;;;;3.20;3.00;;;14.90;99.90;;;;;;469383;253;28972;-80
2023/07/27 04:45:37;;;;;;;3.20;2.90;;;14.80;99.90;;;;;;469439;252;28817;-78
2023/07/27 04:47:38;;;;;;;5.20;3.07;;;14.90;99.90;;;;;;469395;252;28954;-77
2023/07/27 04:49:39;;;;;;;4.13;3.23;;;14.90;99.90;;;;;;469387;252;28893;-79
2023/07/27 04:51:40;;;;;;;5.57;3.37;;;14.90;99.90;;;;;;469375;252;29370;-81
2023/07/27 04:53:42;;;;;;;3.80;3.03;;;14.90;99.90;;;;;;469381;252;29375;-79
2023/07/27 04:55:43;;;;;;;4.80;3.10;;;14.90;99.90;;;;;;469442;252;28879;-80
2023/07/27 04:59:54;;;;;;;3.43;3.13;;;14.90;99.90;;;;;;474922;250;28982;-80
2023/07/27 05:01:56;;;;;;;3.50;3.10;;;14.90;99.90;;;;;;476340;249;28806;-79
2023/07/27 05:03:57;;;;;;;3.93;3.10;;;14.90;99.90;;;;;;470613;252;28797;-79
2023/07/27 05:05:58;;;;;;;4.40;3.50;;;14.90;99.90;;;;;;476308;250;28907;-79
2023/07/27 05:07:59;;;;;;;3.20;2.83;;;14.90;99.90;;;;;;470676;252;28923;-79
2023/07/27 05:10:01;;;;;;;4.30;3.10;;;14.90;99.90;;;;;;476327;250;29377;-80
2023/07/27 05:12:02;;;;;;;7.30;3.27;;;15.00;99.90;;;;;;470652;252;29814;-78
2023/07/27 05:14:03;;;;;;;3.47;3.17;;;15.00;99.90;;;;;;476251;248;29324;-80
2023/07/27 05:16:04;;;;;;;3.57;3.27;;;15.00;99.90;;;;;;470590;252;29352;-80
2023/07/27 05:18:06;;;;;;;4.43;3.20;;;14.90;99.90;;;;;;476142;250;28799;-79
2023/07/27 05:20:07;;;;;;;3.10;2.80;;;14.90;99.90;;;;;;470594;252;28804;-80
2023/07/27 05:22:08;;;;;;;3.20;2.90;;;14.90;99.90;;;;;;476350;250;28891;-81
2023/07/27 05:24:09;;;;;;;3.90;3.43;;;15.00;99.90;;;;;;470641;250;28813;-78
2023/07/27 05:26:11;;;;;;;2.63;2.43;;;15.00;99.90;;;;;;476250;250;28783;-79
2023/07/27 05:28:12;;;;;;;5.90;3.57;;;15.00;99.90;;;;;;470623;252;29232;-77
2023/07/27 05:30:13;;;;;;;2.80;2.60;;;15.00;99.90;;;;;;476267;250;28796;-79
2023/07/27 05:32:14;;;;;;;5.10;3.70;;;15.00;99.90;;;;;;470620;252;28932;-79
2023/07/27 05:34:16;;;;;;;2.97;2.57;;;15.00;99.90;;;;;;476260;244;28927;-81
2023/07/27 05:36:17;;;;;;;3.40;3.10;;;15.00;99.90;;;;;;470605;252;29313;-79
2023/07/27 05:38:18;;;;;;;5.27;3.40;;;15.00;99.90;;;;;;476300;249;29299;-78
2023/07/27 05:40:19;;;;;;;4.90;3.30;;;15.00;99.90;;;;;;470612;252;29384;-82
2023/07/27 05:42:21;;;;;;;3.50;3.20;;;15.00;99.90;;;;;;476343;250;28905;-79
2023/07/27 05:44:22;;;;;;;3.67;2.93;;;15.10;99.90;;;;;;470642;252;28802;-80
2023/07/27 05:46:23;;;;;;;3.00;2.80;;;15.10;99.90;;;;;;476373;243;28791;-81
2023/07/27 05:48:25;;;;;;;6.40;3.50;;;15.00;99.90;;;;;;470704;252;28952;-81
2023/07/27 05:50:26;;;;;;;3.40;2.97;;;15.10;99.90;;;;;;476417;250;28744;-81
2023/07/27 05:52:27;;;;;;;3.20;2.93;;;15.10;99.90;;;;;;470664;252;28894;-81
2023/07/27 05:54:28;;;;;;;4.13;2.80;;;15.20;99.90;;;;;;476331;250;28868;-81
2023/07/27 05:56:29;;;;;;;4.57;3.30;;;15.30;99.90;;;;;;470786;252;28819;-79
2023/07/27 05:58:31;;;;;;;3.60;3.03;;;15.30;99.90;;;;;;476445;250;28864;-78
2023/07/27 06:00:32;;;;;;;6.30;3.10;;;15.30;99.90;;;;;;470702;248;28821;-81
2023/07/27 06:02:33;;;;;;;3.10;2.80;;;15.30;99.90;;;;;;476380;250;29255;-80
2023/07/27 06:04:34;;;;;;;3.23;2.90;;;15.30;99.90;;;;;;470696;252;30079;-82
2023/07/27 06:06:36;;;;;;;8.93;3.43;;;15.30;99.90;;;;;;476513;250;29303;-81
2023/07/27 06:08:37;;;;;;;4.00;2.70;;;15.30;99.90;;;;;;470782;250;28861;-80
2023/07/27 06:10:38;;;;;;;4.30;2.83;;;15.40;99.90;;;;;;476497;250;28736;-82
2023/07/27 06:12:40;;;;;;;3.30;2.93;;;15.30;99.90;;;;;;470829;252;28850;-81
2023/07/27 06:14:41;;;;;;;8.27;3.13;;;15.40;99.90;;;;;;476468;250;28808;-81
2023/07/27 06:16:42;;;;;;;3.73;2.83;;;15.40;99.90;;;;;;470806;252;28836;-81
2023/07/27 06:18:43;;;;;;;4.53;3.10;;;15.50;99.90;;;;;;476565;249;28800;-80
2023/07/27 06:20:45;;;;;;;4.20;3.40;;;15.40;99.90;;;;;;470894;252;28894;-83
2023/07/27 06:22:46;;;;;;;3.63;3.20;;;15.30;99.90;;;;;;476541;250;28859;-81
2023/07/27 06:24:47;;;;;;;5.43;3.30;;;15.30;99.90;;;;;;470939;252;29470;-82
2023/07/27 06:26:48;;;;;;;4.47;3.20;;;15.30;99.90;;;;;;476543;250;29189;-80
2023/07/27 06:28:50;;;;;;;8.03;3.40;;;15.20;99.90;;;;;;470961;252;29344;-78
2023/07/27 06:30:51;;;;;;;4.93;3.00;;;15.20;99.90;;;;;;476666;250;29430;-80
2023/07/27 06:32:52;;;;;;;4.23;2.80;;;15.10;99.90;;;;;;470848;252;28813;-79
2023/07/27 06:34:53;;;;;;;3.80;2.73;;;15.10;99.90;;;;;;476555;249;28814;-80
2023/07/27 06:36:55;;;;;;;5.03;3.57;;;15.10;99.90;;;;;;470871;252;28897;-82
2023/07/27 06:38:56;;;;;;;3.97;2.90;;;15.00;99.90;;;;;;476614;250;28766;-82
2023/07/27 06:40:57;;;;;;;6.17;4.87;;;15.00;99.90;;;;;;471109;252;28818;-83
2023/07/27 06:42:58;;;;;;;7.63;5.63;;;15.10;99.90;;;;;;476903;250;28775;-82
2023/07/27 06:45:00;;;;;;;7.70;3.90;;;15.00;99.90;;;;;;471378;252;28950;-82
2023/07/27 06:47:01;;;;;;;3.37;3.07;;;15.10;99.90;;;;;;476970;250;28820;-84
2023/07/27 06:49:02;;;;;;;3.90;3.00;;;15.20;99.90;;;;;;471465;252;28990;-83
2023/07/27 06:51:03;;;;;;;3.30;3.10;;;15.30;99.90;;;;;;477304;250;29344;-83
2023/07/27 06:53:05;;;;;;;4.97;3.20;;;15.40;99.90;;;;;;471650;252;29384;-80
2023/07/27 06:55:06;;;;;;;3.37;3.07;;;15.50;99.90;;;;;;477337;250;29263;-81
2023/07/27 06:57:09;;;;;;;5.40;3.40;;;15.50;99.90;;;;;;471621;252;28907;-82
2023/07/27 06:59:08;;;;;;;4.03;3.00;;;15.60;99.90;;;;;;477162;244;28749;-83
2023/07/27 07:01:13;;;;;;;3.10;2.80;;;15.60;99.90;;;;;;471553;252;28909;-84
2023/07/27 07:03:11;;;;;;;3.67;3.10;;;15.60;99.90;;;;;;477118;250;28740;-84
2023/07/27 07:05:12;;;;;;;2.87;2.63;;;15.60;99.90;;;;;;471521;252;28925;-83
2023/07/27 07:07:13;;;;;;;4.00;3.23;;;15.70;99.90;;;;;;477035;250;28790;-81
2023/07/27 07:09:15;;;;;;;6.10;3.40;;;15.70;99.90;;;;;;471498;252;28961;-82
2023/07/27 07:11:16;;;;;;;4.63;3.07;;;15.70;99.90;;;;;;477298;248;28784;-83
2023/07/27 07:13:17;;;;;;;4.00;3.00;;;15.50;99.90;;;;;;471558;252;28910;-83
2023/07/27 07:15:18;;;;;;;6.50;3.40;;;15.50;99.90;;;;;;477136;250;28787;-83
2023/07/27 07:17:20;;;;;;;4.87;2.83;;;15.60;99.90;;;;;;471564;252;29379;-81
2023/07/27 07:19:21;;;;;;;3.50;3.07;;;15.60;99.90;;;;;;477364;250;29293;-82
2023/07/27 07:21:22;;;;;;;3.60;2.90;;;15.70;99.90;;;;;;471652;252;28997;-83
2023/07/27 07:23:23;;;;;;;3.23;2.90;;;15.50;99.90;;;;;;477260;243;28775;-85
2023/07/27 07:25:25;;;;;;;3.70;3.13;;;15.30;99.90;;;;;;471597;252;28913;-81
2023/07/27 07:27:26;;;;;;;3.23;2.97;;;15.30;99.90;;;;;;477271;250;28816;-82
2023/07/27 07:29:27;;;;;;;3.30;2.83;;;15.40;99.90;;;;;;471624;253;28981;-80
2023/07/27 07:31:30;;;;;;;4.10;3.30;;;15.70;99.90;;;;;;477410;250;28809;-81
2023/07/27 07:33:30;;;;;;;4.30;3.13;;;15.80;99.90;;;;;;471663;252;28992;-82
2023/07/27 07:35:34;;;;;;;3.43;2.73;;;15.80;99.90;;;;;;477333;250;28764;-82
2023/07/27 07:37:32;;;;;;;4.27;3.17;;;15.80;99.90;;;;;;471625;252;28933;-83
2023/07/27 07:39:33;;;;;;;6.00;3.67;;;15.60;99.90;;;;;;477342;250;28812;-83
2023/07/27 07:41:35;;;;;;;3.30;3.00;;;15.40;99.90;;;;;;471544;253;29425;-82
2023/07/27 07:43:36;;;;;;;3.53;3.00;;;15.30;99.90;;;;;;477224;250;29222;-81
2023/07/27 07:45:37;;;;;;;4.20;3.60;;;15.30;99.90;;;;;;471470;252;29387;-82
2023/07/27 07:47:38;;;;;;;3.73;3.20;;;15.30;99.90;;;;;;477281;250;28915;-84
2023/07/27 07:49:40;;;;;;;4.40;2.67;;;15.20;99.90;;;;;;471524;252;28942;-81
2023/07/27 07:51:41;;;;;;;5.33;3.37;;;15.20;99.90;;;;;;477196;250;28780;-81
2023/07/27 07:53:42;;;;;;;3.10;2.80;;;15.20;99.90;;;;;;471500;250;28982;-81
2023/07/27 07:55:43;;;;;;;4.10;3.17;;;15.10;99.90;;;;;;477331;250;28855;-82
2023/07/27 07:57:45;;;;;;;3.47;2.97;;;15.10;99.90;;;;;;471610;252;28915;-83
2023/07/27 07:59:46;;;;;;;3.50;3.20;;;15.00;99.90;;;;;;477334;250;28744;-82
2023/07/27 08:01:47;;;;;;;4.87;3.33;;;15.00;99.90;;;;;;471501;248;28912;-82
2023/07/27 08:03:48;;;;;;;5.53;3.60;;;15.00;99.90;;;;;;477090;250;28756;-82
2023/07/27 08:05:50;;;;;;;3.27;3.00;;;14.90;99.90;;;;;;471368;252;29362;-82
2023/07/27 08:07:51;;;;;;;3.33;3.00;;;14.90;99.90;;;;;;477109;250;29374;-82
2023/07/27 08:09:52;;;;;;;3.80;3.47;;;14.90;99.90;;;;;;471357;252;29391;-83
2023/07/27 08:11:54;;;;;;;6.00;3.57;;;14.80;99.90;;;;;;477165;250;28894;-80
2023/07/27 08:13:55;;;;;;;4.47;3.80;;;14.80;99.90;;;;;;471447;252;28980;-82
2023/07/27 08:15:56;;;;;;;5.00;3.60;;;14.80;99.90;;;;;;477146;249;28756;-79
2023/07/27 08:17:57;;;;;;;4.60;3.77;;;14.70;99.90;;;;;;471453;252;28916;-80
2023/07/27 08:19:58;;;;;;;4.20;3.40;;;14.70;99.90;;;;;;477170;250;28808;-81
2023/07/27 08:22:00;;;;;;;5.10;4.37;;;14.70;99.90;;;;;;471499;252;28906;-79
2023/07/27 08:24:01;;;;;;;16.43;8.17;;;14.80;99.90;;;;;;476947;250;28751;-82
2023/07/27 08:26:03;;;;;;;10.67;7.47;;;14.90;99.90;;;;;;471244;252;29046;-81
2023/07/27 08:28:04;;;;;;;4.50;4.00;;;14.90;99.90;;;;;;476955;250;29431;-81
2023/07/27 08:30:05;;;;;;;5.87;4.00;;;15.00;99.90;;;;;;471453;252;29385;-82
2023/07/27 08:32:06;;;;;;;4.10;3.70;;;15.30;99.90;;;;;;477152;250;29366;-82
2023/07/27 08:34:07;;;;;;;4.33;3.40;;;15.70;99.90;;;;;;471477;252;29389;-83
2023/07/27 08:36:09;;;;;;;5.90;3.40;;;15.90;99.90;;;;;;477314;250;28728;-81
2023/07/27 08:38:10;;;;;;;8.63;3.90;;;16.00;99.90;;;;;;471704;252;28957;-81
2023/07/27 08:40:11;;;;;;;4.60;3.87;;;15.90;99.90;;;;;;477352;250;28742;-80
2023/07/27 08:42:12;;;;;;;3.53;3.23;;;15.80;99.90;;;;;;471773;252;28919;-81
2023/07/27 08:44:13;;;;;;;3.63;3.33;;;16.00;99.90;;;;;;477497;250;28784;-82
2023/07/27 08:46:15;;;;;;;5.37;3.87;;;16.00;99.90;;;;;;471809;252;28942;-82
2023/07/27 08:48:16;;;;;;;5.30;3.70;;;16.10;99.90;;;;;;477445;249;28769;-79
2023/07/27 08:50:17;;;;;;;5.33;3.70;;;16.10;99.90;;;;;;471746;252;28982;-84
2023/07/27 08:52:18;;;;;;;4.17;3.60;;;16.00;99.90;;;;;;477465;247;28753;-79
2023/07/27 08:54:20;;;;;;;5.30;3.73;;;16.10;99.90;;;;;;471807;252;30478;-81
2023/07/27 08:56:21;;;;;;;6.70;3.43;;;16.30;99.90;;;;;;477503;250;29212;-82
2023/07/27 08:58:22;;;;;;;4.30;3.67;;;16.60;99.90;;;;;;471866;252;29555;-80
2023/07/27 09:00:23;;;;;;;4.20;3.80;;;16.60;99.90;;;;;;477615;250;29290;-84
2023/07/27 09:02:25;;;;;;;5.40;4.17;;;16.70;99.90;;;;;;471752;252;28952;-82
2023/07/27 09:04:26;;;;;;;3.80;3.43;;;16.50;99.90;;;;;;477540;250;28749;-84
2023/07/27 09:06:27;;;;;;;3.90;3.57;;;16.50;99.90;;;;;;471825;252;28903;-82
2023/07/27 09:08:28;;;;;;;9.10;4.03;;;16.50;99.90;;;;;;477556;249;28808;-80
2023/07/27 09:10:30;;;;;;;4.93;3.00;;;16.50;99.90;;;;;;471835;252;29003;-81
2023/07/27 09:12:31;;;;;;;5.07;3.20;;;16.40;99.90;;;;;;477522;250;28744;-82
2023/07/27 09:14:32;;;;;;;6.70;3.90;;;16.30;99.90;;;;;;471740;252;28934;-85
2023/07/27 09:16:33;;;;;;;5.43;3.57;;;16.40;99.90;;;;;;477550;250;28866;-83
2023/07/27 09:18:38;;;;;;;4.43;3.60;;;16.60;99.90;;;;;;471876;252;28979;-80
2023/07/27 09:20:36;;;;;;;6.07;3.33;;;16.80;99.90;;;;;;477496;250;29216;-84
2023/07/27 09:22:37;;;;;;;4.30;3.67;;;17.00;99.90;;;;;;471825;252;29465;-80
2023/07/27 09:24:38;;;;;;;4.40;3.30;;;17.20;99.90;;;;;;477479;250;29409;-82
2023/07/27 09:26:40;;;;;;;3.33;3.03;;;17.10;99.90;;;;;;471732;252;28986;-83
2023/07/27 09:28:41;;;;;;;6.23;3.20;;;17.20;99.90;;;;;;477494;248;28732;-82
2023/07/27 09:30:42;;;;;;;5.33;3.07;;;17.40;99.90;;;;;;471627;252;28923;-83
2023/07/27 09:32:44;;;;;;;4.87;3.10;;;17.40;99.90;;;;;;477397;243;28867;-84
2023/07/27 09:34:45;;;;;;;7.20;3.70;;;17.40;99.90;;;;;;471669;252;28942;-79
2023/07/27 09:36:46;;;;;;;7.90;3.53;;;17.00;99.90;;;;;;477390;243;28754;-83
2023/07/27 09:38:48;;;;;;;3.97;3.60;;;16.80;99.90;;;;;;471766;250;29460;-82
2023/07/27 09:40:48;;;;;;;5.43;3.40;;;16.80;99.90;;;;;;477503;249;29255;-82
2023/07/27 09:42:50;;;;;;;7.83;3.17;;;16.70;99.90;;;;;;471710;252;29423;-80
2023/07/27 09:44:53;;;;;;;6.73;3.43;;;16.50;99.90;;;;;;477415;250;28861;-81
2023/07/27 09:46:52;;;;;;;4.27;3.20;;;16.40;99.90;;;;;;471717;252;28899;-83
2023/07/27 09:48:53;;;;;;;4.53;3.57;;;16.40;99.90;;;;;;477475;250;28792;-82
2023/07/27 09:50:55;;;;;;;7.33;3.57;;;16.40;99.90;;;;;;471628;252;28922;-85
2023/07/27 09:52:56;;;;;;;3.93;3.17;;;16.50;99.90;;;;;;477328;250;28846;-83
2023/07/27 09:54:57;;;;;;;4.23;3.23;;;16.40;99.90;;;;;;471543;252;28917;-81
2023/07/27 09:56:58;;;;;;;4.83;3.90;;;16.40;99.90;;;;;;477310;250;28741;-83
2023/07/27 09:59:00;;;;;;;5.83;3.30;;;16.30;99.90;;;;;;471638;252;28943;-80
2023/07/27 10:01:01;;;;;;;3.53;3.20;;;16.40;99.90;;;;;;477345;250;28735;-84
2023/07/27 10:03:02;;;;;;;4.53;4.10;;;16.60;99.90;;;;;;471590;252;28979;-84
2023/07/27 10:05:04;;;;;;;3.47;3.17;;;16.60;99.90;;;;;;477348;250;29379;-82
2023/07/27 10:07:05;;;;;;;4.67;3.60;;;16.60;99.90;;;;;;471656;252;29362;-82
2023/07/27 10:09:06;;;;;;;3.63;3.33;;;16.80;99.90;;;;;;477339;250;29248;-83
2023/07/27 10:11:07;;;;;;;4.80;3.80;;;16.80;99.90;;;;;;471583;252;28922;-81
2023/07/27 10:13:09;;;;;;;4.93;3.80;;;16.90;99.90;;;;;;477267;250;28748;-84
2023/07/27 10:15:10;;;;;;;4.27;3.40;;;17.00;99.90;;;;;;471582;252;28905;-82
2023/07/27 10:17:12;;;;;;;7.30;4.37;;;16.90;99.90;;;;;;477259;250;28851;-81
2023/07/27 10:19:12;;;;;;;3.77;3.47;;;16.80;99.90;;;;;;471680;252;28892;-80
2023/07/27 10:21:14;;;;;;;4.77;3.43;;;16.70;99.90;;;;;;477411;250;28839;-82
2023/07/27 10:23:19;;;;;;;4.10;3.10;;;16.70;99.90;;;;;;471839;252;28947;-83
2023/07/27 10:25:16;;;;;;;4.70;3.80;;;16.80;99.90;;;;;;477601;248;28803;-81
2023/07/27 10:27:17;;;;;;;7.33;3.83;;;16.80;99.90;;;;;;471990;252;29085;-80
2023/07/27 10:29:19;;;;;;;3.67;3.30;;;16.90;99.90;;;;;;477605;249;29284;-80
2023/07/27 10:31:20;;;;;;;4.13;3.77;;;17.00;99.90;;;;;;471985;252;30280;-85
2023/07/27 10:33:21;;;;;;;7.47;4.23;;;16.90;99.90;;;;;;477743;250;28816;-82